sensor_id;sensor_type;location;lat;lon;timestamp;temperature;humidity
3334;DHT22;1679;50.392;8.008;2023-06-04T00:01:19;14.00;99.90
3334;DHT22;1679;50.392;8.008;2023-06-04T00:03:44;14.00;99.90
3334;DHT22;1679;50.392;8.008;2023-06-04T00:06:10;14.00;99.90
3334;DHT22;1679;50.392;8.008;2023-06-04T00:08:35;13.90;99.90
3334;DHT22;1679;50.392;8.008;2023-06-04T00:11:01;13.90;99.90
3334;DHT22;1679;50.392;8.008;2023-06-04T00:13:26;13.70;99.90
3334;DHT22;1679;50.392;8.008;2023-06-04T00:15:52;13.60;99.90
3334;DHT22;1679;50.392;8.008;2023-06-04T00:18:17;13.60;99.90
3334;DHT22;1679;50.392;8.008;2023-06-04T00:20:43;13.50;99.90
3334;DHT22;1679;50.392;8.008;2023-06-04T00:23:08;13.50;99.90
3334;DHT22;1679;50.392;8.008;2023-06-04T00:25:34;13.40;99.90
3334;DHT22;1679;50.392;8.008;2023-06-04T00:27:59;13.30;99.90
3334;DHT22;1679;50.392;8.008;2023-06-04T00:30:25;13.30;99.90
3334;DHT22;1679;50.392;8.008;2023-06-04T00:32:53;13.20;99.90
3334;DHT22;1679;50.392;8.008;2023-06-04T00:35:18;13.10;99.90
3334;DHT22;1679;50.392;8.008;2023-06-04T00:37:47;12.90;99.90
3334;DHT22;1679;50.392;8.008;2023-06-04T00:40:12;12.70;99.90
3334;DHT22;1679;50.392;8.008;2023-06-04T00:42:38;12.60;99.90
3334;DHT22;1679;50.392;8.008;2023-06-04T00:45:04;12.60;99.90
3334;DHT22;1679;50.392;8.008;2023-06-04T00:47:32;12.40;99.90
3334;DHT22;1679;50.392;8.008;2023-06-04T00:49:58;12.40;99.90
3334;DHT22;1679;50.392;8.008;2023-06-04T00:52:25;12.30;99.90
3334;DHT22;1679;50.392;8.008;2023-06-04T00:54:52;12.20;99.90
3334;DHT22;1679;50.392;8.008;2023-06-04T00:57:20;12.10;99.90
3334;DHT22;1679;50.392;8.008;2023-06-04T00:59:46;12.10;99.90
3334;DHT22;1679;50.392;8.008;2023-06-04T01:02:15;12.00;99.90
3334;DHT22;1679;50.392;8.008;2023-06-04T01:04:59;12.00;99.90
3334;DHT22;1679;50.392;8.008;2023-06-04T01:07:30;12.10;99.90
3334;DHT22;1679;50.392;8.008;2023-06-04T01:09:56;12.10;99.90
3334;DHT22;1679;50.392;8.008;2023-06-04T01:12:22;12.10;99.90
3334;DHT22;1679;50.392;8.008;2023-06-04T01:14:47;12.10;99.90
3334;DHT22;1679;50.392;8.008;2023-06-04T01:25:36;11.90;99.90
3334;DHT22;1679;50.392;8.008;2023-06-04T01:28:05;11.90;99.90
3334;DHT22;1679;50.392;8.008;2023-06-04T01:30:33;11.80;99.90
3334;DHT22;1679;50.392;8.008;2023-06-04T01:33:00;11.80;99.90
3334;DHT22;1679;50.392;8.008;2023-06-04T01:35:27;11.80;99.90
3334;DHT22;1679;50.392;8.008;2023-06-04T01:37:54;11.70;99.90
3334;DHT22;1679;50.392;8.008;2023-06-04T01:40:20;11.70;99.90
3334;DHT22;1679;50.392;8.008;2023-06-04T01:42:46;11.70;99.90
3334;DHT22;1679;50.392;8.008;2023-06-04T01:45:11;11.70;99.90
3334;DHT22;1679;50.392;8.008;2023-06-04T01:47:37;11.60;99.90
3334;DHT22;1679;50.392;8.008;2023-06-04T01:50:06;11.60;99.90
3334;DHT22;1679;50.392;8.008;2023-06-04T01:52:38;11.50;99.90
3334;DHT22;1679;50.392;8.008;2023-06-04T01:55:05;11.50;99.90
3334;DHT22;1679;50.392;8.008;2023-06-04T01:57:33;11.50;99.90
3334;DHT22;1679;50.392;8.008;2023-06-04T01:59:59;11.40;99.90
3334;DHT22;1679;50.392;8.008;2023-06-04T02:02:25;11.50;99.90
3334;DHT22;1679;50.392;8.008;2023-06-04T02:04:51;11.40;99.90
3334;DHT22;1679;50.392;8.008;2023-06-04T02:07:18;11.40;99.90
3334;DHT22;1679;50.392;8.008;2023-06-04T02:09:46;11.30;99.90
3334;DHT22;1679;50.392;8.008;2023-06-04T02:12:12;11.30;99.90
3334;DHT22;1679;50.392;8.008;2023-06-04T02:14:38;11.40;99.90
3334;DHT22;1679;50.392;8.008;2023-06-04T02:17:04;11.30;99.90
3334;DHT22;1679;50.392;8.008;2023-06-04T02:19:30;11.20;99.90
3334;DHT22;1679;50.392;8.008;2023-06-04T02:21:58;11.20;99.90
3334;DHT22;1679;50.392;8.008;2023-06-04T02:24:24;11.20;99.90
3334;DHT22;1679;50.392;8.008;2023-06-04T02:26:50;11.10;99.90
3334;DHT22;1679;50.392;8.008;2023-06-04T02:29:15;11.00;99.90
3334;DHT22;1679;50.392;8.008;2023-06-04T02:31:41;10.90;99.90
3334;DHT22;1679;50.392;8.008;2023-06-04T02:34:07;10.90;99.90
3334;DHT22;1679;50.392;8.008;2023-06-04T02:36:34;10.90;99.90
3334;DHT22;1679;50.392;8.008;2023-06-04T02:38:59;10.90;99.90
3334;DHT22;1679;50.392;8.008;2023-06-04T02:41:28;10.80;99.90
3334;DHT22;1679;50.392;8.008;2023-06-04T02:43:54;10.90;99.90
3334;DHT22;1679;50.392;8.008;2023-06-04T02:46:19;10.90;99.90
3334;DHT22;1679;50.392;8.008;2023-06-04T02:48:46;10.90;99.90
3334;DHT22;1679;50.392;8.008;2023-06-04T02:51:13;10.90;99.90
3334;DHT22;1679;50.392;8.008;2023-06-04T02:53:38;10.90;99.90
3334;DHT22;1679;50.392;8.008;2023-06-04T02:56:04;10.90;99.90
3334;DHT22;1679;50.392;8.008;2023-06-04T02:58:29;10.90;99.90
3334;DHT22;1679;50.392;8.008;2023-06-04T03:00:56;10.80;99.90
3334;DHT22;1679;50.392;8.008;2023-06-04T03:03:23;10.80;99.90
3334;DHT22;1679;50.392;8.008;2023-06-04T03:05:48;10.80;99.90
3334;DHT22;1679;50.392;8.008;2023-06-04T03:08:14;10.80;99.90
3334;DHT22;1679;50.392;8.008;2023-06-04T03:10:40;10.70;99.90
3334;DHT22;1679;50.392;8.008;2023-06-04T03:13:05;10.70;99.90
3334;DHT22;1679;50.392;8.008;2023-06-04T03:15:32;10.60;99.90
3334;DHT22;1679;50.392;8.008;2023-06-04T03:17:58;10.60;99.90
3334;DHT22;1679;50.392;8.008;2023-06-04T03:20:23;10.60;99.90
3334;DHT22;1679;50.392;8.008;2023-06-04T03:22:51;10.60;99.90
3334;DHT22;1679;50.392;8.008;2023-06-04T03:25:17;10.60;99.90
3334;DHT22;1679;50.392;8.008;2023-06-04T03:27:42;10.50;99.90
3334;DHT22;1679;50.392;8.008;2023-06-04T03:30:09;10.50;99.90
3334;DHT22;1679;50.392;8.008;2023-06-04T03:32:35;10.50;99.90
3334;DHT22;1679;50.392;8.008;2023-06-04T03:35:01;10.40;99.90
3334;DHT22;1679;50.392;8.008;2023-06-04T03:37:27;10.40;99.90
3334;DHT22;1679;50.392;8.008;2023-06-04T03:39:53;10.50;99.90
3334;DHT22;1679;50.392;8.008;2023-06-04T03:42:21;10.50;99.90
3334;DHT22;1679;50.392;8.008;2023-06-04T03:44:46;10.50;99.90
3334;DHT22;1679;50.392;8.008;2023-06-04T03:47:12;10.50;99.90
3334;DHT22;1679;50.392;8.008;2023-06-04T03:49:38;10.50;99.90
3334;DHT22;1679;50.392;8.008;2023-06-04T03:52:03;10.40;99.90
3334;DHT22;1679;50.392;8.008;2023-06-04T03:54:29;10.40;99.90
3334;DHT22;1679;50.392;8.008;2023-06-04T03:56:56;10.40;99.90
3334;DHT22;1679;50.392;8.008;2023-06-04T03:59:21;10.40;99.90
3334;DHT22;1679;50.392;8.008;2023-06-04T04:01:47;10.40;99.90
3334;DHT22;1679;50.392;8.008;2023-06-04T04:04:13;10.40;99.90
3334;DHT22;1679;50.392;8.008;2023-06-04T04:06:38;10.50;99.90
3334;DHT22;1679;50.392;8.008;2023-06-04T04:09:04;10.50;99.90
3334;DHT22;1679;50.392;8.008;2023-06-04T04:11:31;10.60;99.90
3334;DHT22;1679;50.392;8.008;2023-06-04T04:13:56;10.60;99.90
3334;DHT22;1679;50.392;8.008;2023-06-04T04:16:22;10.70;99.90
3334;DHT22;1679;50.392;8.008;2023-06-04T04:18:53;10.70;99.90
3334;DHT22;1679;50.392;8.008;2023-06-04T04:21:18;10.70;99.90
3334;DHT22;1679;50.392;8.008;2023-06-04T04:23:45;10.80;99.90
3334;DHT22;1679;50.392;8.008;2023-06-04T04:26:10;10.90;99.90
3334;DHT22;1679;50.392;8.008;2023-06-04T04:28:37;10.90;99.90
3334;DHT22;1679;50.392;8.008;2023-06-04T04:31:02;11.00;99.90
3334;DHT22;1679;50.392;8.008;2023-06-04T04:33:28;11.10;99.90
3334;DHT22;1679;50.392;8.008;2023-06-04T04:35:58;11.10;99.90
3334;DHT22;1679;50.392;8.008;2023-06-04T04:38:28;11.10;99.90
3334;DHT22;1679;50.392;8.008;2023-06-04T04:40:54;11.20;99.90
3334;DHT22;1679;50.392;8.008;2023-06-04T04:43:32;11.30;99.90
3334;DHT22;1679;50.392;8.008;2023-06-04T04:45:57;11.30;99.90
3334;DHT22;1679;50.392;8.008;2023-06-04T04:48:24;11.40;99.90
3334;DHT22;1679;50.392;8.008;2023-06-04T04:50:52;11.50;99.90
3334;DHT22;1679;50.392;8.008;2023-06-04T04:53:17;11.60;99.90
3334;DHT22;1679;50.392;8.008;2023-06-04T04:55:43;11.60;99.90
3334;DHT22;1679;50.392;8.008;2023-06-04T04:58:09;11.60;99.90
3334;DHT22;1679;50.392;8.008;2023-06-04T05:00:34;11.70;99.90
3334;DHT22;1679;50.392;8.008;2023-06-04T05:03:00;11.80;99.90
3334;DHT22;1679;50.392;8.008;2023-06-04T05:05:25;11.90;99.90
3334;DHT22;1679;50.392;8.008;2023-06-04T05:07:51;11.80;99.90
3334;DHT22;1679;50.392;8.008;2023-06-04T05:10:16;11.90;99.90
3334;DHT22;1679;50.392;8.008;2023-06-04T05:13:12;11.90;99.90
3334;DHT22;1679;50.392;8.008;2023-06-04T05:15:37;11.90;99.90
3334;DHT22;1679;50.392;8.008;2023-06-04T05:18:05;12.00;99.90
3334;DHT22;1679;50.392;8.008;2023-06-04T05:20:30;12.10;99.90
3334;DHT22;1679;50.392;8.008;2023-06-04T05:22:56;12.10;99.90
3334;DHT22;1679;50.392;8.008;2023-06-04T05:25:23;12.20;99.90
3334;DHT22;1679;50.392;8.008;2023-06-04T05:27:49;12.20;99.90
3334;DHT22;1679;50.392;8.008;2023-06-04T05:30:15;12.30;99.90
3334;DHT22;1679;50.392;8.008;2023-06-04T05:32:41;12.30;99.90
3334;DHT22;1679;50.392;8.008;2023-06-04T05:35:07;12.40;99.90
3334;DHT22;1679;50.392;8.008;2023-06-04T05:37:35;12.40;99.90
3334;DHT22;1679;50.392;8.008;2023-06-04T05:40:00;12.40;99.90
3334;DHT22;1679;50.392;8.008;2023-06-04T05:42:26;12.50;99.90
3334;DHT22;1679;50.392;8.008;2023-06-04T05:44:51;12.50;99.90
3334;DHT22;1679;50.392;8.008;2023-06-04T05:47:18;12.70;99.90
3334;DHT22;1679;50.392;8.008;2023-06-04T05:49:44;12.80;99.90
3334;DHT22;1679;50.392;8.008;2023-06-04T05:52:10;12.80;99.90
3334;DHT22;1679;50.392;8.008;2023-06-04T05:54:35;12.90;99.90
3334;DHT22;1679;50.392;8.008;2023-06-04T05:57:03;13.00;99.90
3334;DHT22;1679;50.392;8.008;2023-06-04T05:59:29;13.10;99.90
3334;DHT22;1679;50.392;8.008;2023-06-04T06:01:55;13.20;99.90
3334;DHT22;1679;50.392;8.008;2023-06-04T06:04:20;13.30;99.90
3334;DHT22;1679;50.392;8.008;2023-06-04T06:06:46;13.40;99.90
3334;DHT22;1679;50.392;8.008;2023-06-04T06:09:14;13.60;99.90
3334;DHT22;1679;50.392;8.008;2023-06-04T06:11:40;13.80;99.90
3334;DHT22;1679;50.392;8.008;2023-06-04T06:14:06;13.90;99.90
3334;DHT22;1679;50.392;8.008;2023-06-04T06:16:32;14.00;99.90
3334;DHT22;1679;50.392;8.008;2023-06-04T06:19:01;14.10;99.90
3334;DHT22;1679;50.392;8.008;2023-06-04T06:21:28;14.40;99.90
3334;DHT22;1679;50.392;8.008;2023-06-04T06:23:54;14.40;99.90
3334;DHT22;1679;50.392;8.008;2023-06-04T06:26:20;14.40;99.90
3334;DHT22;1679;50.392;8.008;2023-06-04T06:28:48;14.60;99.90
3334;DHT22;1679;50.392;8.008;2023-06-04T06:31:14;14.70;99.90
3334;DHT22;1679;50.392;8.008;2023-06-04T06:33:40;14.80;99.90
3334;DHT22;1679;50.392;8.008;2023-06-04T06:36:10;15.00;99.90
3334;DHT22;1679;50.392;8.008;2023-06-04T06:38:39;15.10;99.90
3334;DHT22;1679;50.392;8.008;2023-06-04T06:41:06;15.10;99.90
3334;DHT22;1679;50.392;8.008;2023-06-04T06:43:31;15.40;99.90
3334;DHT22;1679;50.392;8.008;2023-06-04T06:45:57;15.80;99.90
3334;DHT22;1679;50.392;8.008;2023-06-04T06:48:23;16.40;99.90
3334;DHT22;1679;50.392;8.008;2023-06-04T06:50:48;17.00;99.90
3334;DHT22;1679;50.392;8.008;2023-06-04T06:53:14;17.80;99.90
3334;DHT22;1679;50.392;8.008;2023-06-04T06:55:39;18.40;99.90
3334;DHT22;1679;50.392;8.008;2023-06-04T06:58:05;18.80;99.90
3334;DHT22;1679;50.392;8.008;2023-06-04T07:00:30;19.20;99.90
3334;DHT22;1679;50.392;8.008;2023-06-04T07:02:56;19.60;99.90
3334;DHT22;1679;50.392;8.008;2023-06-04T07:05:22;20.00;99.90
3334;DHT22;1679;50.392;8.008;2023-06-04T07:07:47;20.40;99.90
3334;DHT22;1679;50.392;8.008;2023-06-04T07:10:13;20.20;99.90
3334;DHT22;1679;50.392;8.008;2023-06-04T07:12:39;19.80;99.90
3334;DHT22;1679;50.392;8.008;2023-06-04T07:15:06;19.90;99.90
3334;DHT22;1679;50.392;8.008;2023-06-04T07:17:31;20.30;99.90
3334;DHT22;1679;50.392;8.008;2023-06-04T07:19:57;20.20;99.90
3334;DHT22;1679;50.392;8.008;2023-06-04T07:22:23;20.30;99.90
3334;DHT22;1679;50.392;8.008;2023-06-04T07:24:48;20.60;99.90
3334;DHT22;1679;50.392;8.008;2023-06-04T07:27:14;20.60;99.90
3334;DHT22;1679;50.392;8.008;2023-06-04T07:29:43;21.20;99.90
3334;DHT22;1679;50.392;8.008;2023-06-04T07:32:09;21.60;99.90
3334;DHT22;1679;50.392;8.008;2023-06-04T07:34:34;21.90;99.00
3334;DHT22;1679;50.392;8.008;2023-06-04T07:37:02;22.00;97.70
3334;DHT22;1679;50.392;8.008;2023-06-04T07:39:28;21.90;97.10
3334;DHT22;1679;50.392;8.008;2023-06-04T07:41:54;21.50;98.60
3334;DHT22;1679;50.392;8.008;2023-06-04T07:44:19;21.40;97.30
3334;DHT22;1679;50.392;8.008;2023-06-04T07:46:45;21.40;97.10
3334;DHT22;1679;50.392;8.008;2023-06-04T07:49:12;21.40;98.40
3334;DHT22;1679;50.392;8.008;2023-06-04T07:51:37;21.50;98.00
3334;DHT22;1679;50.392;8.008;2023-06-04T07:54:03;21.40;96.80
3334;DHT22;1679;50.392;8.008;2023-06-04T07:56:28;21.30;97.60
3334;DHT22;1679;50.392;8.008;2023-06-04T07:58:55;21.80;96.20
3334;DHT22;1679;50.392;8.008;2023-06-04T08:01:21;22.20;94.80
3334;DHT22;1679;50.392;8.008;2023-06-04T08:03:47;22.00;95.30
3334;DHT22;1679;50.392;8.008;2023-06-04T08:06:12;21.60;95.90
3334;DHT22;1679;50.392;8.008;2023-06-04T08:08:42;21.50;96.30
3334;DHT22;1679;50.392;8.008;2023-06-04T08:11:11;21.70;95.70
3334;DHT22;1679;50.392;8.008;2023-06-04T08:13:36;21.30;95.20
3334;DHT22;1679;50.392;8.008;2023-06-04T08:16:01;21.60;96.70
3334;DHT22;1679;50.392;8.008;2023-06-04T08:18:27;21.90;95.50
3334;DHT22;1679;50.392;8.008;2023-06-04T08:20:52;22.50;95.10
3334;DHT22;1679;50.392;8.008;2023-06-04T08:23:18;23.10;94.20
3334;DHT22;1679;50.392;8.008;2023-06-04T08:25:44;23.50;94.00
3334;DHT22;1679;50.392;8.008;2023-06-04T08:28:10;23.60;92.50
3334;DHT22;1679;50.392;8.008;2023-06-04T08:30:36;23.20;93.60
3334;DHT22;1679;50.392;8.008;2023-06-04T08:33:02;23.40;92.50
3334;DHT22;1679;50.392;8.008;2023-06-04T08:35:29;23.70;92.10
3334;DHT22;1679;50.392;8.008;2023-06-04T08:37:54;24.10;92.80
3334;DHT22;1679;50.392;8.008;2023-06-04T08:40:20;23.50;91.10
3334;DHT22;1679;50.392;8.008;2023-06-04T08:42:48;22.80;91.30
3334;DHT22;1679;50.392;8.008;2023-06-04T08:45:14;22.60;91.80
3334;DHT22;1679;50.392;8.008;2023-06-04T08:47:48;22.50;91.50
3334;DHT22;1679;50.392;8.008;2023-06-04T08:50:17;22.60;92.40
3334;DHT22;1679;50.392;8.008;2023-06-04T08:52:43;23.10;90.40
3334;DHT22;1679;50.392;8.008;2023-06-04T08:55:11;22.50;90.90
3334;DHT22;1679;50.392;8.008;2023-06-04T08:57:38;22.70;91.70
3334;DHT22;1679;50.392;8.008;2023-06-04T09:00:05;23.10;90.60
3334;DHT22;1679;50.392;8.008;2023-06-04T09:02:35;22.80;90.30
3334;DHT22;1679;50.392;8.008;2023-06-04T09:05:03;22.90;90.60
3334;DHT22;1679;50.392;8.008;2023-06-04T09:07:30;23.00;91.20
3334;DHT22;1679;50.392;8.008;2023-06-04T09:09:56;23.50;89.00
3334;DHT22;1679;50.392;8.008;2023-06-04T09:12:24;23.80;90.30
3334;DHT22;1679;50.392;8.008;2023-06-04T09:14:50;24.20;85.90
3334;DHT22;1679;50.392;8.008;2023-06-04T09:17:21;24.10;87.00
3334;DHT22;1679;50.392;8.008;2023-06-04T09:19:47;24.10;87.70
3334;DHT22;1679;50.392;8.008;2023-06-04T09:22:16;24.40;85.20
3334;DHT22;1679;50.392;8.008;2023-06-04T09:24:43;24.70;84.60
3334;DHT22;1679;50.392;8.008;2023-06-04T09:27:19;25.10;83.60
3334;DHT22;1679;50.392;8.008;2023-06-04T09:29:49;24.50;82.30
3334;DHT22;1679;50.392;8.008;2023-06-04T09:32:27;23.90;83.60
3334;DHT22;1679;50.392;8.008;2023-06-04T09:34:54;23.30;81.00
3334;DHT22;1679;50.392;8.008;2023-06-04T09:37:20;23.50;86.30
3334;DHT22;1679;50.392;8.008;2023-06-04T09:39:54;23.60;82.10
3334;DHT22;1679;50.392;8.008;2023-06-04T09:42:20;23.30;83.30
3334;DHT22;1679;50.392;8.008;2023-06-04T09:44:46;23.20;84.50
3334;DHT22;1679;50.392;8.008;2023-06-04T09:47:12;23.30;85.60
3334;DHT22;1679;50.392;8.008;2023-06-04T09:49:46;23.60;82.80
3334;DHT22;1679;50.392;8.008;2023-06-04T09:52:13;23.40;82.00
3334;DHT22;1679;50.392;8.008;2023-06-04T09:54:41;23.30;83.90
3334;DHT22;1679;50.392;8.008;2023-06-04T09:57:15;23.40;82.40
3334;DHT22;1679;50.392;8.008;2023-06-04T09:59:45;23.40;82.90
3334;DHT22;1679;50.392;8.008;2023-06-04T10:02:18;23.30;85.50
3334;DHT22;1679;50.392;8.008;2023-06-04T10:04:48;23.10;78.60
3334;DHT22;1679;50.392;8.008;2023-06-04T10:07:14;22.90;80.40
3334;DHT22;1679;50.392;8.008;2023-06-04T10:09:43;22.90;82.80
3334;DHT22;1679;50.392;8.008;2023-06-04T10:12:13;22.70;82.50
3334;DHT22;1679;50.392;8.008;2023-06-04T10:14:55;22.70;86.00
3334;DHT22;1679;50.392;8.008;2023-06-04T10:17:22;22.90;85.10
3334;DHT22;1679;50.392;8.008;2023-06-04T10:19:50;23.20;81.10
3334;DHT22;1679;50.392;8.008;2023-06-04T10:22:17;23.60;82.50
3334;DHT22;1679;50.392;8.008;2023-06-04T10:24:43;24.00;80.70
3334;DHT22;1679;50.392;8.008;2023-06-04T10:27:11;24.40;79.30
3334;DHT22;1679;50.392;8.008;2023-06-04T10:29:41;24.80;78.70
3334;DHT22;1679;50.392;8.008;2023-06-04T10:32:07;24.50;77.50
3334;DHT22;1679;50.392;8.008;2023-06-04T10:34:34;24.60;77.50
3334;DHT22;1679;50.392;8.008;2023-06-04T10:37:02;24.60;79.90
3334;DHT22;1679;50.392;8.008;2023-06-04T10:39:29;24.00;78.80
3334;DHT22;1679;50.392;8.008;2023-06-04T10:42:02;23.50;81.70
3334;DHT22;1679;50.392;8.008;2023-06-04T10:44:30;23.30;79.10
3334;DHT22;1679;50.392;8.008;2023-06-04T10:46:58;23.30;84.30
3334;DHT22;1679;50.392;8.008;2023-06-04T10:49:29;23.80;78.50
3334;DHT22;1679;50.392;8.008;2023-06-04T10:51:55;23.80;80.00
3334;DHT22;1679;50.392;8.008;2023-06-04T10:54:29;24.20;79.60
3334;DHT22;1679;50.392;8.008;2023-06-04T10:56:55;24.20;80.40
3334;DHT22;1679;50.392;8.008;2023-06-04T10:59:21;24.30;79.20
3334;DHT22;1679;50.392;8.008;2023-06-04T11:01:47;24.10;80.00
3334;DHT22;1679;50.392;8.008;2023-06-04T11:04:23;23.70;81.70
3334;DHT22;1679;50.392;8.008;2023-06-04T11:07:03;23.30;83.90
3334;DHT22;1679;50.392;8.008;2023-06-04T11:09:37;23.10;82.80
3334;DHT22;1679;50.392;8.008;2023-06-04T11:12:06;23.00;83.50
3334;DHT22;1679;50.392;8.008;2023-06-04T11:14:32;22.90;82.10
3334;DHT22;1679;50.392;8.008;2023-06-04T11:17:08;22.80;82.80
3334;DHT22;1679;50.392;8.008;2023-06-04T11:19:37;23.10;81.70
3334;DHT22;1679;50.392;8.008;2023-06-04T11:22:04;23.50;82.70
3334;DHT22;1679;50.392;8.008;2023-06-04T11:24:30;23.50;81.60
3334;DHT22;1679;50.392;8.008;2023-06-04T11:26:57;23.40;84.90
3334;DHT22;1679;50.392;8.008;2023-06-04T11:29:25;23.30;84.50
3334;DHT22;1679;50.392;8.008;2023-06-04T11:31:50;23.30;83.20
3334;DHT22;1679;50.392;8.008;2023-06-04T11:34:26;23.30;83.40
3334;DHT22;1679;50.392;8.008;2023-06-04T11:36:53;23.10;82.00
3334;DHT22;1679;50.392;8.008;2023-06-04T11:39:19;23.10;82.90
3334;DHT22;1679;50.392;8.008;2023-06-04T11:41:45;23.40;81.80
3334;DHT22;1679;50.392;8.008;2023-06-04T11:44:12;23.60;82.40
3334;DHT22;1679;50.392;8.008;2023-06-04T11:46:44;23.50;82.00
3334;DHT22;1679;50.392;8.008;2023-06-04T11:49:15;23.30;80.40
3334;DHT22;1679;50.392;8.008;2023-06-04T11:51:48;23.20;80.10
3334;DHT22;1679;50.392;8.008;2023-06-04T11:54:16;23.00;83.40
3334;DHT22;1679;50.392;8.008;2023-06-04T11:56:42;23.10;80.30
3334;DHT22;1679;50.392;8.008;2023-06-04T11:59:12;22.80;79.60
3334;DHT22;1679;50.392;8.008;2023-06-04T12:01:42;22.80;82.70
3334;DHT22;1679;50.392;8.008;2023-06-04T12:04:15;22.80;82.10
3334;DHT22;1679;50.392;8.008;2023-06-04T12:07:19;22.70;78.20
3334;DHT22;1679;50.392;8.008;2023-06-04T12:09:44;22.40;79.00
3334;DHT22;1679;50.392;8.008;2023-06-04T12:12:11;22.50;79.20
3334;DHT22;1679;50.392;8.008;2023-06-04T12:14:37;22.60;78.70
3334;DHT22;1679;50.392;8.008;2023-06-04T12:17:07;22.40;78.20
3334;DHT22;1679;50.392;8.008;2023-06-04T12:19:44;22.50;78.70
3334;DHT22;1679;50.392;8.008;2023-06-04T12:22:10;22.60;76.20
3334;DHT22;1679;50.392;8.008;2023-06-04T12:24:47;22.40;78.50
3334;DHT22;1679;50.392;8.008;2023-06-04T12:27:14;22.40;76.30
3334;DHT22;1679;50.392;8.008;2023-06-04T12:29:40;22.40;77.60
3334;DHT22;1679;50.392;8.008;2023-06-04T12:32:09;22.40;77.70
3334;DHT22;1679;50.392;8.008;2023-06-04T12:34:41;22.50;76.50
3334;DHT22;1679;50.392;8.008;2023-06-04T12:37:07;22.40;76.00
3334;DHT22;1679;50.392;8.008;2023-06-04T12:39:34;22.40;76.50
3334;DHT22;1679;50.392;8.008;2023-06-04T12:42:00;22.50;78.50
3334;DHT22;1679;50.392;8.008;2023-06-04T12:44:25;22.50;75.70
3334;DHT22;1679;50.392;8.008;2023-06-04T12:46:52;22.40;76.30
3334;DHT22;1679;50.392;8.008;2023-06-04T12:49:17;22.40;76.60
3334;DHT22;1679;50.392;8.008;2023-06-04T12:51:43;22.50;81.30
3334;DHT22;1679;50.392;8.008;2023-06-04T12:54:09;22.60;78.80
3334;DHT22;1679;50.392;8.008;2023-06-04T12:56:35;22.60;76.20
3334;DHT22;1679;50.392;8.008;2023-06-04T12:59:01;22.50;76.30
3334;DHT22;1679;50.392;8.008;2023-06-04T13:01:27;22.40;78.30
3334;DHT22;1679;50.392;8.008;2023-06-04T13:03:53;22.40;78.10
3334;DHT22;1679;50.392;8.008;2023-06-04T13:06:18;22.60;78.50
3334;DHT22;1679;50.392;8.008;2023-06-04T13:08:44;22.70;78.50
3334;DHT22;1679;50.392;8.008;2023-06-04T13:11:10;22.80;75.80
3334;DHT22;1679;50.392;8.008;2023-06-04T13:13:36;22.70;75.60
3334;DHT22;1679;50.392;8.008;2023-06-04T13:16:02;22.70;75.40
3334;DHT22;1679;50.392;8.008;2023-06-04T13:18:28;22.70;77.50
3334;DHT22;1679;50.392;8.008;2023-06-04T13:20:53;22.60;76.90
3334;DHT22;1679;50.392;8.008;2023-06-04T13:23:20;22.80;76.60
3334;DHT22;1679;50.392;8.008;2023-06-04T13:25:45;22.90;77.90
3334;DHT22;1679;50.392;8.008;2023-06-04T13:28:11;22.80;74.00
3334;DHT22;1679;50.392;8.008;2023-06-04T13:30:38;22.80;76.90
3334;DHT22;1679;50.392;8.008;2023-06-04T13:33:06;23.00;78.60
3334;DHT22;1679;50.392;8.008;2023-06-04T13:35:32;23.00;74.70
3334;DHT22;1679;50.392;8.008;2023-06-04T13:37:58;23.00;75.50
3334;DHT22;1679;50.392;8.008;2023-06-04T13:40:23;23.00;78.20
3334;DHT22;1679;50.392;8.008;2023-06-04T13:42:49;23.00;74.00
3334;DHT22;1679;50.392;8.008;2023-06-04T13:45:15;22.90;73.90
3334;DHT22;1679;50.392;8.008;2023-06-04T13:47:42;22.80;74.80
3334;DHT22;1679;50.392;8.008;2023-06-04T13:50:08;22.90;78.40
3334;DHT22;1679;50.392;8.008;2023-06-04T13:52:33;23.10;76.00
3334;DHT22;1679;50.392;8.008;2023-06-04T13:54:59;23.00;75.60
3334;DHT22;1679;50.392;8.008;2023-06-04T13:57:25;23.10;78.00
3334;DHT22;1679;50.392;8.008;2023-06-04T13:59:51;23.20;77.00
3334;DHT22;1679;50.392;8.008;2023-06-04T14:02:17;23.10;72.10
3334;DHT22;1679;50.392;8.008;2023-06-04T14:04:42;23.00;72.70
3334;DHT22;1679;50.392;8.008;2023-06-04T14:07:08;23.00;75.70
3334;DHT22;1679;50.392;8.008;2023-06-04T14:09:34;23.00;74.70
3334;DHT22;1679;50.392;8.008;2023-06-04T14:12:02;23.00;72.40
3334;DHT22;1679;50.392;8.008;2023-06-04T14:14:28;23.00;73.50
3334;DHT22;1679;50.392;8.008;2023-06-04T14:17:01;23.00;79.20
3334;DHT22;1679;50.392;8.008;2023-06-04T14:19:27;23.10;77.90
3334;DHT22;1679;50.392;8.008;2023-06-04T14:21:52;23.20;73.10
3334;DHT22;1679;50.392;8.008;2023-06-04T14:24:18;23.10;74.00
3334;DHT22;1679;50.392;8.008;2023-06-04T14:26:43;23.00;75.70
3334;DHT22;1679;50.392;8.008;2023-06-04T14:29:09;23.00;72.90
3334;DHT22;1679;50.392;8.008;2023-06-04T14:31:34;23.00;76.60
3334;DHT22;1679;50.392;8.008;2023-06-04T14:34:00;23.10;73.90
3334;DHT22;1679;50.392;8.008;2023-06-04T14:36:25;23.20;75.30
3334;DHT22;1679;50.392;8.008;2023-06-04T14:38:51;23.20;75.40
3334;DHT22;1679;50.392;8.008;2023-06-04T14:41:16;23.20;74.50
3334;DHT22;1679;50.392;8.008;2023-06-04T14:43:42;23.10;74.60
3334;DHT22;1679;50.392;8.008;2023-06-04T14:46:07;23.10;72.50
3334;DHT22;1679;50.392;8.008;2023-06-04T14:48:33;23.00;71.60
3334;DHT22;1679;50.392;8.008;2023-06-04T14:50:58;23.10;75.20
3334;DHT22;1679;50.392;8.008;2023-06-04T14:53:24;23.20;73.00
3334;DHT22;1679;50.392;8.008;2023-06-04T14:55:49;23.10;71.30
3334;DHT22;1679;50.392;8.008;2023-06-04T14:58:17;23.10;71.50
3334;DHT22;1679;50.392;8.008;2023-06-04T15:00:42;23.10;73.10
3334;DHT22;1679;50.392;8.008;2023-06-04T15:03:08;23.10;72.10
3334;DHT22;1679;50.392;8.008;2023-06-04T15:05:33;23.10;71.30
3334;DHT22;1679;50.392;8.008;2023-06-04T15:07:59;23.20;73.10
3334;DHT22;1679;50.392;8.008;2023-06-04T15:10:26;23.20;71.20
3334;DHT22;1679;50.392;8.008;2023-06-04T15:12:57;23.20;71.30
3334;DHT22;1679;50.392;8.008;2023-06-04T15:15:23;23.20;72.50
3334;DHT22;1679;50.392;8.008;2023-06-04T15:17:49;23.10;73.10
3334;DHT22;1679;50.392;8.008;2023-06-04T15:20:15;23.10;75.60
3334;DHT22;1679;50.392;8.008;2023-06-04T15:22:41;23.20;73.80
3334;DHT22;1679;50.392;8.008;2023-06-04T15:25:07;23.30;73.80
3334;DHT22;1679;50.392;8.008;2023-06-04T15:27:32;23.30;73.30
3334;DHT22;1679;50.392;8.008;2023-06-04T15:29:58;23.40;72.80
3334;DHT22;1679;50.392;8.008;2023-06-04T15:32:23;23.50;73.70
3334;DHT22;1679;50.392;8.008;2023-06-04T15:34:49;23.50;72.30
3334;DHT22;1679;50.392;8.008;2023-06-04T15:37:15;23.50;73.30
3334;DHT22;1679;50.392;8.008;2023-06-04T15:39:41;23.40;69.00
3334;DHT22;1679;50.392;8.008;2023-06-04T15:42:06;23.30;71.40
3334;DHT22;1679;50.392;8.008;2023-06-04T15:44:33;23.40;73.20
3334;DHT22;1679;50.392;8.008;2023-06-04T15:46:59;23.30;73.80
3334;DHT22;1679;50.392;8.008;2023-06-04T15:49:24;23.40;76.00
3334;DHT22;1679;50.392;8.008;2023-06-04T15:51:50;23.50;74.70
3334;DHT22;1679;50.392;8.008;2023-06-04T15:54:15;23.50;76.20
3334;DHT22;1679;50.392;8.008;2023-06-04T15:56:41;23.40;74.30
3334;DHT22;1679;50.392;8.008;2023-06-04T15:59:06;23.30;75.20
3334;DHT22;1679;50.392;8.008;2023-06-04T16:01:32;23.20;75.70
3334;DHT22;1679;50.392;8.008;2023-06-04T16:03:58;23.20;76.50
3334;DHT22;1679;50.392;8.008;2023-06-04T16:06:23;23.20;75.10
3334;DHT22;1679;50.392;8.008;2023-06-04T16:08:50;23.20;75.50